Time;durP1;ratioP1;P1;durP2;ratioP2;P2;SDS_P1;SDS_P2;PMS_P1;PMS_P2;Temp;Humidity;BMP_temperature;BMP_pressure;BME280_temperature;BME280_humidity;BME280_pressure;Samples;Min_cycle;Max_cycle;Signal;HPM_P1;HPM_P2
2022/10/05 00:02:22;;;;;;;8.10;6.07;;;6.60;99.90;;;;;;4996060;28;20187;-74
2022/10/05 00:04:51;;;;;;;6.90;6.18;;;6.70;99.90;;;;;;5013728;28;20253;-74
2022/10/05 00:07:19;;;;;;;7.20;6.15;;;6.60;99.90;;;;;;4995906;28;20214;-74
2022/10/05 00:09:52;;;;;;;19.17;7.15;;;6.60;99.90;;;;;;4995875;28;20183;-74
2022/10/05 00:12:20;;;;;;;14.80;6.40;;;6.60;99.90;;;;;;5014413;28;20178;-74
2022/10/05 00:14:49;;;;;;;10.07;6.93;;;6.50;99.90;;;;;;5013384;28;20180;-74
2022/10/05 00:17:19;;;;;;;14.63;7.77;;;6.40;99.90;;;;;;4996047;28;20183;-74
2022/10/05 00:19:45;;;;;;;8.17;6.70;;;6.40;99.90;;;;;;4996253;28;20184;-74
2022/10/05 00:22:27;;;;;;;8.30;5.97;;;6.40;99.90;;;;;;5013502;28;20176;-74
2022/10/05 00:24:57;;;;;;;8.67;6.87;;;6.40;99.90;;;;;;4996393;28;20261;-74
2022/10/05 00:27:31;;;;;;;13.40;7.53;;;6.40;99.90;;;;;;4996626;28;20202;-74
2022/10/05 00:30:39;;;;;;;8.03;6.30;;;6.40;99.90;;;;;;4995820;28;20175;-74
2022/10/05 00:33:04;;;;;;;6.73;6.03;;;6.40;99.90;;;;;;4995922;28;20262;-74
2022/10/05 00:35:33;;;;;;;8.47;6.50;;;6.40;99.90;;;;;;4996060;28;20294;-74
2022/10/05 00:37:58;;;;;;;6.83;6.10;;;6.40;99.90;;;;;;4996897;28;20190;-74
2022/10/05 00:40:47;;;;;;;10.98;6.78;;;6.40;99.90;;;;;;4996289;28;20184;-74
2022/10/05 00:43:41;;;;;;;9.80;6.70;;;6.40;99.90;;;;;;5013602;28;20168;-74
2022/10/05 00:46:16;;;;;;;35.00;7.35;;;6.40;99.90;;;;;;4977036;28;20224;-74
2022/10/05 00:48:51;;;;;;;6.97;6.37;;;6.50;99.90;;;;;;4995726;28;20175;-74
2022/10/05 00:51:27;;;;;;;7.53;6.43;;;6.40;99.90;;;;;;4996523;28;20198;-74
2022/10/05 00:54:11;;;;;;;7.50;6.80;;;6.40;99.90;;;;;;4995720;28;20184;-74
2022/10/05 00:57:17;;;;;;;8.80;6.87;;;6.30;99.90;;;;;;5013452;28;20198;-74
2022/10/05 00:59:54;;;;;;;7.20;6.43;;;6.30;99.90;;;;;;4995690;28;20630;-74
2022/10/05 01:02:45;;;;;;;8.97;6.40;;;6.30;99.90;;;;;;4995583;28;20271;-74
2022/10/05 01:05:23;;;;;;;7.60;6.73;;;6.30;99.90;;;;;;4996256;28;20227;-74
2022/10/05 01:08:09;;;;;;;8.20;6.57;;;6.20;99.90;;;;;;5013009;28;20192;-74
2022/10/05 01:11:01;;;;;;;7.37;6.40;;;6.20;99.90;;;;;;4996368;28;20174;-74
2022/10/05 01:13:39;;;;;;;10.37;6.70;;;6.20;99.90;;;;;;4998046;28;20194;-74
2022/10/05 01:16:17;;;;;;;8.03;6.53;;;6.20;99.90;;;;;;5016961;28;20194;-74
2022/10/05 01:18:57;;;;;;;8.27;6.30;;;6.20;99.90;;;;;;4999548;28;20564;-74
2022/10/05 01:21:29;;;;;;;10.77;6.63;;;6.10;99.90;;;;;;4998942;28;20168;-74
2022/10/05 01:24:14;;;;;;;10.13;6.87;;;6.10;99.90;;;;;;4998754;28;20215;-74
2022/10/05 01:26:58;;;;;;;9.70;6.33;;;6.00;99.90;;;;;;5016488;28;20681;-74
2022/10/05 01:29:39;;;;;;;7.07;6.00;;;5.90;99.90;;;;;;4999620;28;20171;-74
2022/10/05 01:32:11;;;;;;;6.50;5.90;;;5.90;99.90;;;;;;5016365;28;20166;-74
2022/10/05 01:34:52;;;;;;;7.30;5.90;;;5.90;99.90;;;;;;5016577;28;20255;-74
2022/10/05 01:37:45;;;;;;;6.63;5.50;;;5.90;99.90;;;;;;4999236;28;20187;-74
2022/10/05 01:40:24;;;;;;;7.30;5.40;;;5.90;99.90;;;;;;4999385;28;20183;-74
2022/10/05 01:43:10;;;;;;;6.10;5.50;;;5.90;99.90;;;;;;4998470;28;20270;-74
2022/10/05 01:45:36;;;;;;;6.77;5.37;;;6.00;99.90;;;;;;5016044;28;20215;-74
2022/10/05 01:48:15;;;;;;;7.17;5.23;;;5.90;99.90;;;;;;4998339;28;20345;-74
2022/10/05 01:54:37;;;;;;;8.87;5.40;;;5.80;99.90;;;;;;5015873;28;20254;-74
2022/10/05 01:57:09;;;;;;;6.97;5.20;;;5.70;99.90;;;;;;4991250;28;20192;-74
2022/10/05 01:59:55;;;;;;;6.20;5.60;;;5.60;99.90;;;;;;4998816;28;20274;-74
2022/10/05 02:02:22;;;;;;;7.33;5.87;;;5.60;99.90;;;;;;4998177;28;20183;-74
2022/10/05 02:05:01;;;;;;;43.97;6.43;;;5.70;99.90;;;;;;5015537;28;20176;-74
2022/10/05 02:07:34;;;;;;;43.33;6.93;;;5.70;99.90;;;;;;4998287;28;20708;-74
2022/10/05 02:10:04;;;;;;;10.87;6.83;;;5.70;99.90;;;;;;4998545;28;20167;-74
2022/10/05 02:12:36;;;;;;;26.20;8.10;;;5.70;99.90;;;;;;5015439;28;20182;-74
2022/10/05 02:15:13;;;;;;;11.87;8.03;;;5.60;99.90;;;;;;5015792;28;20565;-74
2022/10/05 02:17:49;;;;;;;10.37;7.10;;;5.70;99.90;;;;;;4997956;28;20183;-74
2022/10/05 02:20:23;;;;;;;6.90;6.20;;;5.70;99.90;;;;;;5015298;28;20190;-74
2022/10/05 02:22:53;;;;;;;5.63;5.13;;;5.70;99.90;;;;;;4998269;28;20179;-74
2022/10/05 02:25:27;;;;;;;8.03;7.03;;;5.70;99.90;;;;;;4998242;28;20310;-74
2022/10/05 02:28:02;;;;;;;26.73;19.50;;;5.60;99.90;;;;;;4998490;28;20205;-74
2022/10/05 02:30:30;;;;;;;48.07;38.30;;;5.50;99.90;;;;;;4998521;28;20211;-74
2022/10/05 02:33:08;;;;;;;30.70;23.30;;;5.50;99.90;;;;;;5015164;28;20183;-74
2022/10/05 02:35:34;;;;;;;16.13;13.23;;;5.50;99.90;;;;;;5015484;28;20262;-74
2022/10/05 02:38:04;;;;;;;13.50;9.60;;;5.50;99.90;;;;;;4997792;28;20340;-74
2022/10/05 02:40:39;;;;;;;12.57;8.90;;;5.50;99.90;;;;;;4998421;28;20226;-74
2022/10/05 02:43:23;;;;;;;13.47;8.87;;;5.50;99.90;;;;;;5015186;28;20159;-74
2022/10/05 02:46:21;;;;;;;12.83;8.13;;;5.50;99.90;;;;;;4997096;28;20262;-74
2022/10/05 02:48:58;;;;;;;15.43;7.60;;;5.50;99.90;;;;;;4992660;28;20207;-74
2022/10/05 02:51:32;;;;;;;62.37;8.40;;;5.30;99.90;;;;;;4997943;28;20175;-74
2022/10/05 02:54:18;;;;;;;7.43;6.50;;;5.20;99.90;;;;;;5014930;28;20167;-74
2022/10/05 02:56:51;;;;;;;9.23;7.53;;;5.30;99.90;;;;;;4997388;28;20203;-74
2022/10/05 02:59:33;;;;;;;12.47;7.27;;;5.20;99.90;;;;;;4997881;28;20179;-74
2022/10/05 03:02:14;;;;;;;17.20;7.20;;;5.30;99.90;;;;;;4997797;28;20171;-74
2022/10/05 03:04:56;;;;;;;9.27;7.20;;;5.30;99.90;;;;;;5014698;28;20234;-74
2022/10/05 03:07:38;;;;;;;10.50;6.93;;;5.30;99.90;;;;;;4997797;28;20199;-74
